Time;durP1;ratioP1;P1;durP2;ratioP2;P2;SDS_P1;SDS_P2;PMS_P1;PMS_P2;Temp;Humidity;BMP_temperature;BMP_pressure;BME280_temperature;BME280_humidity;BME280_pressure;Samples;Min_cycle;Max_cycle;Signal;HPM_P1;HPM_P2
2022/11/29 05:11:29;;;;;;;57.13;19.40;;;;;;;-0.10;100.00;101020.75;5499737;32;282327;-88
2022/11/29 05:15:13;;;;;;;54.08;18.70;;;;;;;-0.10;100.00;101020.75;5483146;32;32480;-88
2022/11/29 05:18:34;;;;;;;48.17;16.70;;;;;;;-0.58;100.00;101028.31;5483859;32;35580;-89
2022/11/29 05:21:46;;;;;;;;;;;;;;;-0.52;100.00;101025.75;5501913;32;34528;-89
2022/11/29 05:32:31;;;;;;;45.78;18.77;;;;;;;-0.57;100.00;101036.13;5352666;30;20126;-89
2022/11/29 05:35:43;;;;;;;40.63;14.98;;;;;;;-0.57;100.00;101030.03;5524504;32;33876;-92
2022/11/29 05:39:11;;;;;;;35.33;14.90;;;;;;;-0.64;100.00;101025.66;5524963;32;33949;-89
2022/11/29 05:42:27;;;;;;;33.13;14.30;;;;;;;-0.63;100.00;101036.09;5524586;32;33755;-89
2022/11/29 05:46:13;;;;;;;33.10;13.77;;;;;;;-0.56;100.00;101035.28;5524373;32;34355;-89
2022/11/29 05:49:52;;;;;;;38.60;14.70;;;;;;;-0.64;100.00;101033.47;5486164;32;34023;-89
2022/11/29 05:53:05;;;;;;;34.63;14.25;;;;;;;-0.64;100.00;101038.69;5512315;32;33787;-88
2022/11/29 05:56:29;;;;;;;39.88;14.73;;;;;;;-0.57;100.00;101030.94;5511137;32;32348;-88
2022/11/29 05:59:35;;;;;;;42.90;16.92;;;;;;;-0.61;100.00;101034.38;5510658;32;33303;-91
2022/11/29 06:03:02;;;;;;;43.22;17.58;;;;;;;-0.65;100.00;101042.16;5524476;32;33942;-92
2022/11/29 06:06:32;;;;;;;43.15;18.73;;;;;;;-0.61;100.00;101030.91;5502986;32;34004;-88
2022/11/29 06:09:43;;;;;;;42.17;17.37;;;;;;;-0.60;100.00;101037.84;5512787;32;34932;-88
2022/11/29 06:13:07;;;;;;;;;;;;;;;-0.69;100.00;101043.87;5514997;32;33721;-88
2022/11/29 06:16:46;;;;;;;36.03;16.67;;;;;;;-0.62;100.00;101050.87;5523228;32;34622;-88
2022/11/29 06:19:59;;;;;;;37.38;16.73;;;;;;;-0.60;100.00;101056.09;5514252;32;33919;-88
2022/11/29 06:23:16;;;;;;;41.63;18.02;;;;;;;-0.61;100.00;101056.97;5500733;32;33894;-88
2022/11/29 06:26:57;;;;;;;41.78;17.85;;;;;;;-0.63;100.00;101064.75;5490643;32;32979;-88
2022/11/29 06:30:02;;;;;;;39.88;18.48;;;;;;;-0.63;100.00;101059.56;5495763;32;33038;-88
2022/11/29 06:33:15;;;;;;;41.67;18.27;;;;;;;-0.61;100.00;101056.97;5513052;32;34342;-88
2022/11/29 06:36:30;;;;;;;37.88;17.00;;;;;;;-0.64;100.00;101060.41;5509596;32;34665;-89
2022/11/29 06:39:33;;;;;;;40.08;18.42;;;;;;;-0.66;100.00;101059.50;5519778;32;34176;-89
2022/11/29 06:42:36;;;;;;;38.55;17.98;;;;;;;-0.62;100.00;101066.50;5505460;32;35240;-89
2022/11/29 06:45:47;;;;;;;35.60;16.25;;;;;;;-0.58;100.00;101075.22;5506200;32;34047;-89
2022/11/29 06:49:18;;;;;;;32.92;16.23;;;;;;;-0.63;100.00;101067.37;5503895;32;33892;-89
2022/11/29 06:52:41;;;;;;;38.95;17.98;;;;;;;-0.61;100.00;101065.62;5501329;32;34079;-89
2022/11/29 06:55:44;;;;;;;37.67;17.30;;;;;;;-0.53;100.00;101063.09;5502049;32;34091;-89
2022/11/29 06:58:56;;;;;;;38.97;17.40;;;;;;;-0.59;100.00;101063.06;5516341;32;33908;-90
2022/11/29 07:02:11;;;;;;;36.65;17.33;;;;;;;-0.61;100.00;101063.03;5586275;26;35314;-87
2022/11/29 07:32:07;;;;;;;39.83;17.55;;;;;;;-0.39;100.00;101075.34;1768583;27;20070;-91
2022/11/29 07:43:02;;;;;;;38.80;17.80;;;;;;;-0.32;100.00;101080.63;5543755;27;20094;-90
2022/11/29 08:01:50;;;;;;;31.40;15.80;;;;;;;-0.45;100.00;101094.44;4111887;27;20468;-90
2022/11/29 08:12:48;;;;;;;37.85;16.70;;;;;;;-0.32;100.00;101096.25;3895531;30;20118;-87
2022/11/29 08:15:53;;;;;;;37.38;17.35;;;;;;;-0.16;100.00;101096.34;5456584;32;34088;-87
2022/11/29 08:18:56;;;;;;;37.70;17.70;;;;;;;-0.15;100.00;101087.69;5430552;32;32919;-87
2022/11/29 08:21:58;;;;;;;40.45;17.17;;;;;;;-0.18;100.00;101085.94;5439314;32;33934;-86
2022/11/29 08:25:02;;;;;;;39.67;19.52;;;;;;;-0.07;100.00;101087.72;5436964;32;34607;-86
2022/11/29 08:28:05;;;;;;;40.15;19.05;;;;;;;-0.06;100.00;101082.50;5437304;32;34081;-87
2022/11/29 08:31:10;;;;;;;43.33;19.23;;;;;;;0.12;100.00;101080.87;5436459;32;35095;-87
2022/11/29 08:34:13;;;;;;;48.05;19.70;;;;;;;0.06;100.00;101084.34;5438777;32;35146;-87
2022/11/29 08:37:15;;;;;;;47.60;21.52;;;;;;;-0.12;100.00;101089.41;5441292;32;34199;-87
2022/11/29 08:40:18;;;;;;;49.65;20.37;;;;;;;0.03;100.00;101086.91;5440494;32;34725;-88
2022/11/29 08:43:21;;;;;;;46.33;19.98;;;;;;;0.41;100.00;101101.03;5431086;32;34099;-87
2022/11/29 08:47:34;;;;;;;47.78;19.58;;;;;;;0.16;100.00;101092.19;5431017;32;32854;-87
2022/11/29 08:50:02;;;;;;;45.85;20.95;;;;;;;-0.07;100.00;101098.16;5435043;32;33502;-87
2022/11/29 08:56:27;;;;;;;;;;;;;;;-0.02;100.00;101099.06;5426763;32;33929;-88
2022/11/29 08:59:49;;;;;;;46.30;19.60;;;;;;;0.28;100.00;101088.75;5433181;32;34454;-88
2022/11/29 09:02:52;;;;;;;47.25;21.02;;;;;;;0.25;100.00;101095.72;5445372;32;33925;-89
2022/11/29 09:05:56;;;;;;;46.60;20.48;;;;;;;0.31;100.00;101104.44;5433995;32;34486;-88
2022/11/29 09:09:00;;;;;;;53.13;22.55;;;;;;;0.15;100.00;101098.28;5433645;32;34055;-88
2022/11/29 09:12:06;;;;;;;47.22;20.85;;;;;;;0.11;100.00;101095.63;5437986;32;33754;-89
2022/11/29 09:15:11;;;;;;;46.95;20.65;;;;;;;0.21;100.00;101086.12;5418887;32;33480;-88
2022/11/29 09:18:14;;;;;;;42.67;19.85;;;;;;;0.06;100.00;101092.16;5420910;32;34303;-86
2022/11/29 09:21:17;;;;;;;45.47;20.90;;;;;;;0.15;100.00;101087.84;5426478;32;33823;-87
2022/11/29 09:24:20;;;;;;;46.75;21.45;;;;;;;0.12;100.00;101083.47;5444637;32;34118;-88
2022/11/29 09:27:23;;;;;;;43.25;20.67;;;;;;;0.05;100.00;101079.97;5441826;32;35057;-88
2022/11/29 09:30:28;;;;;;;45.83;21.30;;;;;;;0.01;100.00;101080.81;5435868;32;35877;-87
2022/11/29 09:33:31;;;;;;;39.10;19.05;;;;;;;0.02;100.00;101085.16;5421513;32;33905;-88
2022/11/29 09:36:34;;;;;;;42.00;18.98;;;;;;;-0.02;100.00;101079.06;5412332;32;32421;-89
2022/11/29 09:39:37;;;;;;;43.30;19.00;;;;;;;0.04;100.00;101078.22;5427346;32;34422;-89
2022/11/29 09:43:04;;;;;;;39.92;17.48;;;;;;;0.18;100.00;101078.28;5423340;32;34269;-89
2022/11/29 09:46:24;;;;;;;44.83;20.23;;;;;;;0.06;100.00;101084.34;5416887;32;33604;-89
2022/11/29 10:15:21;;;;;;;49.33;20.20;;;;;;;1.01;100.00;101058.47;1521316;27;20117;-89
2022/11/29 10:25:54;;;;;;;42.42;19.80;;;;;;;0.94;100.00;101041.06;3855311;30;20360;-89
2022/11/29 10:35:56;;;;;;;41.40;19.75;;;;;;;0.77;100.00;101047.16;5440421;32;36361;-88
2022/11/29 10:54:37;;;;;;;45.78;19.70;;;;;;;1.27;100.00;101028.91;4876146;30;20126;-90
2022/11/29 10:58:10;;;;;;;43.60;20.37;;;;;;;1.46;100.00;101027.13;5472474;32;34263;-90
2022/11/29 11:01:15;;;;;;;41.95;18.83;;;;;;;1.10;100.00;101026.25;5467349;32;34272;-89
2022/11/29 11:04:32;;;;;;;48.05;19.35;;;;;;;1.17;100.00;101025.38;5446591;32;33266;-89
2022/11/29 11:07:35;;;;;;;46.72;20.27;;;;;;;1.16;100.00;101028.88;5441504;32;32885;-90
2022/11/29 11:10:40;;;;;;;41.28;19.70;;;;;;;1.00;100.00;101021.94;5457962;32;34632;-89
2022/11/29 11:13:57;;;;;;;44.63;20.10;;;;;;;1.02;100.00;101022.78;5447317;32;34156;-89
2022/11/29 11:17:32;;;;;;;45.00;20.50;;;;;;;0.93;100.00;101021.94;5440486;32;34734;-89
2022/11/29 11:20:39;;;;;;;41.53;19.95;;;;;;;0.98;100.00;101021.91;5417955;32;33959;-89
2022/11/29 11:23:56;;;;;;;41.30;19.50;;;;;;;1.20;100.00;101028.00;5449442;32;32551;-89
2022/11/29 11:27:00;;;;;;;40.97;19.52;;;;;;;1.21;100.00;101031.50;5450430;32;32293;-88
2022/11/29 11:30:05;;;;;;;39.75;20.17;;;;;;;1.51;100.00;101021.88;5459861;32;33856;-89
2022/11/29 11:33:22;;;;;;;38.10;18.80;;;;;;;1.27;100.00;101023.66;5461501;32;34080;-89
2022/11/29 11:36:26;;;;;;;42.92;20.85;;;;;;;1.11;100.00;101028.00;5451513;32;32336;-89
2022/11/29 11:39:28;;;;;;;43.97;20.73;;;;;;;1.14;100.00;101025.41;5458514;32;34542;-88
2022/11/29 11:42:39;;;;;;;41.92;20.52;;;;;;;0.96;100.00;101023.66;5456042;32;32265;-89
2022/11/29 11:45:51;;;;;;;46.65;20.83;;;;;;;0.88;100.00;101023.66;5463299;32;34717;-89
2022/11/29 11:48:53;;;;;;;37.63;19.83;;;;;;;1.10;100.00;101022.78;5473410;27;33496;-88
2022/11/29 11:51:59;;;;;;;44.00;20.05;;;;;;;1.25;100.00;101025.38;5463472;32;34577;-88
2022/11/29 11:55:23;;;;;;;42.65;20.23;;;;;;;1.15;100.00;101021.06;5451206;32;34159;-88
2022/11/29 11:58:53;;;;;;;42.88;21.05;;;;;;;1.12;100.00;101026.28;5471159;27;33952;-88
2022/11/29 12:01:55;;;;;;;47.10;21.12;;;;;;;1.16;100.00;101017.56;5448413;32;34896;-89
2022/11/29 12:05:02;;;;;;;48.33;21.30;;;;;;;1.14;100.00;101017.56;5447960;32;33773;-89
2022/11/29 12:08:11;;;;;;;42.97;21.92;;;;;;;0.96;100.00;101021.06;5441695;32;34062;-88
2022/11/29 12:11:17;;;;;;;41.85;20.45;;;;;;;1.01;100.00;101018.44;5477981;27;34074;-89
2022/11/29 12:14:26;;;;;;;42.10;20.80;;;;;;;0.90;100.00;101016.69;5459456;32;34409;-88
2022/11/29 12:17:43;;;;;;;46.53;21.23;;;;;;;0.99;100.00;101015.81;5477953;27;34423;-88
2022/11/29 12:20:57;;;;;;;44.53;21.33;;;;;;;0.87;100.00;101014.09;5428124;32;32737;-88
2022/11/29 12:24:09;;;;;;;42.78;20.17;;;;;;;1.02;100.00;101018.44;5433586;32;34752;-89
2022/11/29 12:27:14;;;;;;;39.20;19.87;;;;;;;1.11;100.00;101014.94;5501712;27;33749;-89
2022/11/29 12:30:18;;;;;;;41.60;19.70;;;;;;;1.03;100.00;101016.69;5536755;27;34959;-88
2022/11/29 12:33:28;;;;;;;45.08;21.55;;;;;;;0.92;100.00;101017.53;5458781;32;34253;-88
2022/11/29 12:36:49;;;;;;;43.65;20.73;;;;;;;0.74;100.00;101015.78;5460140;27;34071;-88
2022/11/29 12:39:58;;;;;;;45.63;19.40;;;;;;;0.71;100.00;101007.97;5439632;32;34285;-87
2022/11/29 14:03:40;;;;;;;42.33;20.33;;;;;;;1.55;100.00;101005.31;1572794;27;20117;-89
2022/11/29 14:07:25;;;;;;;43.50;21.73;;;;;;;1.45;100.00;101009.69;5405662;32;34259;-91
2022/11/29 14:10:29;;;;;;;44.55;21.10;;;;;;;1.30;100.00;101004.47;5410290;32;33044;-90
2022/11/29 14:21:10;;;;;;;48.80;22.20;;;;;;;1.71;100.00;101002.66;5297810;27;20129;-90
2022/11/29 14:31:50;;;;;;;47.60;21.98;;;;;;;1.35;100.00;101007.94;2379191;30;20432;-90
2022/11/29 14:35:06;;;;;;;46.80;22.48;;;;;;;1.42;100.00;101003.59;5432886;27;34031;-90
2022/11/29 14:38:38;;;;;;;54.17;25.10;;;;;;;1.44;100.00;101000.09;5409073;32;33397;-90
2022/11/29 14:42:17;;;;;;;50.50;22.92;;;;;;;1.34;100.00;101003.59;5410102;32;33881;-89
2022/11/29 14:45:27;;;;;;;50.35;24.80;;;;;;;1.39;100.00;101009.69;5417922;32;34246;-88
2022/11/29 14:48:32;;;;;;;47.95;22.48;;;;;;;1.39;100.00;101001.84;5446829;27;33957;-89
2022/11/29 14:51:35;;;;;;;50.05;23.38;;;;;;;1.37;100.00;101001.00;5426377;32;35150;-89
2022/11/29 14:54:54;;;;;;;45.38;21.83;;;;;;;1.33;100.00;101001.88;5421846;32;34856;-92
2022/11/29 14:57:57;;;;;;;47.40;22.52;;;;;;;1.27;100.00;101001.88;5404432;32;34320;-88
2022/11/29 15:01:02;;;;;;;51.30;23.27;;;;;;;1.42;100.00;101000.97;5404355;32;33344;-89
2022/11/29 15:04:11;;;;;;;48.92;23.45;;;;;;;1.42;100.00;101003.59;5404884;32;34258;-89
2022/11/29 15:07:22;;;;;;;50.35;23.35;;;;;;;1.28;100.00;101001.00;5417776;32;33833;-88
2022/11/29 15:10:30;;;;;;;56.27;27.37;;;;;;;1.31;100.00;101001.84;5417543;32;33716;-88
2022/11/29 15:13:35;;;;;;;57.58;26.50;;;;;;;1.49;100.00;101002.72;5429200;32;34534;-88
2022/11/29 15:16:43;;;;;;;56.70;26.00;;;;;;;1.43;100.00;100998.38;5428168;32;34950;-89
2022/11/29 15:20:20;;;;;;;62.38;26.62;;;;;;;1.39;100.00;101003.59;5430125;32;35018;-88
2022/11/29 15:23:23;;;;;;;60.63;26.70;;;;;;;1.40;100.00;101000.13;5419870;32;34865;-89
2022/11/29 15:26:26;;;;;;;57.13;25.98;;;;;;;1.45;100.00;100991.38;5420605;32;34525;-89
2022/11/29 15:29:30;;;;;;;56.25;26.02;;;;;;;1.54;100.00;101000.97;5430337;32;34180;-90
2022/11/29 15:44:01;;;;;;;53.95;25.30;;;;;;;1.60;100.00;101000.94;5196292;30;20111;-89
2022/11/29 15:47:24;;;;;;;55.58;25.17;;;;;;;1.57;100.00;101005.31;5416179;32;34040;-89
2022/11/29 15:50:32;;;;;;;53.67;24.63;;;;;;;1.59;100.00;101004.44;5404271;32;33808;-89
2022/11/29 15:53:42;;;;;;;53.05;24.87;;;;;;;1.53;100.00;101004.44;5404281;32;33840;-89
2022/11/29 15:56:50;;;;;;;49.83;23.87;;;;;;;1.43;100.00;101005.34;5418164;32;33997;-89
2022/11/29 15:59:57;;;;;;;50.10;24.37;;;;;;;1.37;100.00;101011.47;5418613;32;33485;-89
2022/11/29 16:03:02;;;;;;;51.67;25.15;;;;;;;1.34;100.00;100996.63;5421318;32;34583;-89
2022/11/29 16:06:18;;;;;;;49.85;24.27;;;;;;;1.37;100.00;101003.59;5418519;32;34363;-89
2022/11/29 16:09:37;;;;;;;51.75;24.20;;;;;;;1.33;100.00;100999.25;5417830;32;34465;-92
2022/11/29 16:13:04;;;;;;;49.72;24.10;;;;;;;1.33;100.00;100997.53;5418387;32;33710;-90
2022/11/29 16:16:14;;;;;;;50.30;24.30;;;;;;;1.25;100.00;101008.84;5404367;32;33308;-89
2022/11/29 16:19:23;;;;;;;49.30;24.12;;;;;;;1.22;100.00;101020.19;5418816;32;34615;-89
2022/11/29 16:22:26;;;;;;;56.22;25.52;;;;;;;1.30;100.00;101014.91;5410047;32;32385;-89
2022/11/29 16:25:30;;;;;;;54.50;25.02;;;;;;;1.30;100.00;101009.69;5418565;32;34126;-89
2022/11/29 16:28:44;;;;;;;51.70;25.50;;;;;;;1.28;100.00;101007.09;5404053;32;32739;-89
2022/11/29 16:31:47;;;;;;;56.28;26.08;;;;;;;1.30;100.00;101020.16;5416915;32;33989;-89
2022/11/29 16:34:51;;;;;;;59.13;27.95;;;;;;;1.28;100.00;101022.78;5404824;32;32406;-89
2022/11/29 16:37:54;;;;;;;57.28;26.30;;;;;;;1.32;100.00;101015.81;5416853;32;34099;-89
2022/11/29 16:41:06;;;;;;;56.65;25.42;;;;;;;1.47;100.00;101014.91;5406775;32;32452;-89
2022/11/29 16:44:40;;;;;;;60.10;26.45;;;;;;;1.38;100.00;101020.16;5417565;32;33850;-89
